createdAt,value
2018-11-02T00:02:07.356Z,16.56
2018-11-02T00:04:37.915Z,16.54
2018-11-02T00:07:08.646Z,16.56
2018-11-02T00:09:39.164Z,16.60
2018-11-02T00:12:10.333Z,16.40
2018-11-02T00:14:40.474Z,16.18
2018-11-02T00:17:10.948Z,15.78
2018-11-02T00:19:41.586Z,15.43
2018-11-02T00:22:12.232Z,15.39
2018-11-02T00:24:42.261Z,15.73
2018-11-02T00:27:12.562Z,15.96
2018-11-02T00:29:42.970Z,15.89
2018-11-02T00:32:14.492Z,16.03
2018-11-02T00:34:45.207Z,16.16
2018-11-02T00:37:15.703Z,16.26
2018-11-02T00:39:46.366Z,16.27
2018-11-02T00:42:17.099Z,16.41
2018-11-02T00:44:47.586Z,15.99
2018-11-02T00:47:18.321Z,15.93
2018-11-02T00:49:48.751Z,16.09
2018-11-02T00:52:19.932Z,16.16
2018-11-02T00:54:50.488Z,16.17
2018-11-02T00:57:20.854Z,16.24
2018-11-02T00:59:51.354Z,16.27
2018-11-02T01:02:22.256Z,16.31
2018-11-02T01:04:52.695Z,16.33
2018-11-02T01:07:23.203Z,16.35
2018-11-02T01:09:53.555Z,16.26
2018-11-02T01:12:24.231Z,15.81
2018-11-02T01:14:54.854Z,15.86
2018-11-02T01:17:25.475Z,15.88
2018-11-02T01:19:56.194Z,15.54
2018-11-02T01:22:27.740Z,15.32
2018-11-02T01:24:58.103Z,15.58
2018-11-02T01:27:28.510Z,15.80
2018-11-02T01:29:58.679Z,16.06
2018-11-02T01:32:29.818Z,16.05
2018-11-02T01:35:00.876Z,16.05
2018-11-02T01:37:31.479Z,15.85
2018-11-02T01:40:02.289Z,15.98
2018-11-02T01:42:32.894Z,16.04
2018-11-02T01:45:03.337Z,16.03
2018-11-02T01:47:33.630Z,16.03
2018-11-02T01:50:04.295Z,15.99
2018-11-02T01:52:35.404Z,16.04
2018-11-02T01:55:06.657Z,16.00
2018-11-02T01:57:37.281Z,16.07
2018-11-02T02:00:08.834Z,15.98
2018-11-02T02:02:40.295Z,15.96
2018-11-02T02:05:10.761Z,15.98
2018-11-02T02:07:41.295Z,15.90
2018-11-02T02:10:11.860Z,15.76
2018-11-02T02:12:43.122Z,15.66
2018-11-02T02:15:13.411Z,15.70
2018-11-02T02:17:43.804Z,15.58
2018-11-02T02:20:14.542Z,15.43
2018-11-02T02:22:46.134Z,15.45
2018-11-02T02:25:16.448Z,15.46
2018-11-02T02:27:47.379Z,15.69
2018-11-02T02:30:18.495Z,15.72
2018-11-02T02:32:50.302Z,15.73
2018-11-02T02:35:21.802Z,15.62
2018-11-02T02:37:52.215Z,15.62
2018-11-02T02:40:22.186Z,15.62
2018-11-02T02:42:53.083Z,15.66
2018-11-02T02:45:22.999Z,15.63
2018-11-02T02:47:54.415Z,15.64
2018-11-02T02:50:25.379Z,15.65
2018-11-02T02:52:56.359Z,15.64
2018-11-02T02:55:27.410Z,15.68
2018-11-02T02:57:58.842Z,15.67
2018-11-02T03:00:29.533Z,15.61
2018-11-02T03:03:01.253Z,15.61
2018-11-02T03:05:32.074Z,15.62
2018-11-02T03:08:02.700Z,15.63
2018-11-02T03:10:33.354Z,15.59
2018-11-02T03:13:05.392Z,15.58
2018-11-02T03:15:36.709Z,15.61
2018-11-02T03:18:06.881Z,15.63
2018-11-02T03:20:36.945Z,15.57
2018-11-02T03:23:07.795Z,15.55
2018-11-02T03:25:37.687Z,15.51
2018-11-02T03:28:07.622Z,15.48
2018-11-02T03:30:37.601Z,15.46
2018-11-02T03:33:08.623Z,15.47
2018-11-02T03:35:38.858Z,15.35
2018-11-02T03:38:09.938Z,15.28
2018-11-02T03:40:41.086Z,15.20
2018-11-02T03:43:12.722Z,15.23
2018-11-02T03:45:43.637Z,15.15
2018-11-02T03:48:14.591Z,15.09
2018-11-02T03:50:46.070Z,15.11
2018-11-02T03:53:17.660Z,15.02
2018-11-02T03:55:49.147Z,14.95
2018-11-02T03:58:20.596Z,14.97
2018-11-02T04:00:50.945Z,14.91
2018-11-02T04:03:22.574Z,14.90
2018-11-02T04:05:54.372Z,14.84
2018-11-02T04:08:25.813Z,14.68
2018-11-02T04:10:56.117Z,14.40
2018-11-02T04:13:27.584Z,14.63
2018-11-02T04:15:57.899Z,14.67
2018-11-02T04:18:28.762Z,14.72
2018-11-02T04:20:59.533Z,13.01
2018-11-02T04:23:31.033Z,14.71
2018-11-02T04:26:01.698Z,14.78
2018-11-02T04:28:32.464Z,14.72
2018-11-02T04:31:03.934Z,14.74
2018-11-02T04:33:35.768Z,14.73
2018-11-02T04:36:07.178Z,14.68
2018-11-02T04:38:38.562Z,14.70
2018-11-02T04:41:09.306Z,14.45
2018-11-02T04:43:40.146Z,14.39
2018-11-02T04:46:10.334Z,14.63
2018-11-02T04:48:40.342Z,14.73
2018-11-02T04:51:10.327Z,14.72
2018-11-02T04:53:41.155Z,14.51
2018-11-02T04:56:11.246Z,14.65
2018-11-02T04:58:41.412Z,14.71
2018-11-02T05:01:11.449Z,14.69
2018-11-02T05:03:42.099Z,14.75
2018-11-02T05:06:12.554Z,14.76
2018-11-02T05:08:43.646Z,14.79
2018-11-02T05:11:15.222Z,14.81
2018-11-02T05:13:46.570Z,14.77
2018-11-02T05:16:17.029Z,14.70
2018-11-02T05:18:47.775Z,14.67
2018-11-02T05:21:19.701Z,14.80
2018-11-02T05:23:50.698Z,14.84
2018-11-02T05:26:20.777Z,14.79
2018-11-02T05:28:51.939Z,14.72
2018-11-02T05:31:21.982Z,14.63
2018-11-02T05:33:52.946Z,14.86
2018-11-02T05:36:23.421Z,15.23
2018-11-02T05:38:53.559Z,15.48
2018-11-02T05:41:24.311Z,15.61
2018-11-02T05:43:56.115Z,15.74
2018-11-02T05:46:26.666Z,15.68
2018-11-02T05:48:57.594Z,15.64
2018-11-02T05:51:29.248Z,15.62
2018-11-02T05:54:00.679Z,15.66
2018-11-02T05:56:30.682Z,15.73
2018-11-02T05:59:00.707Z,15.86
2018-11-02T06:01:30.807Z,15.95
2018-11-02T06:04:00.938Z,16.21
2018-11-02T06:06:31.047Z,16.26
2018-11-02T06:09:01.094Z,16.46
2018-11-02T06:11:31.059Z,16.89
2018-11-02T06:14:01.219Z,16.85
2018-11-02T06:16:31.248Z,16.34
2018-11-02T06:19:01.272Z,16.18
2018-11-02T06:21:31.684Z,16.41
2018-11-02T06:24:02.196Z,16.87
2018-11-02T06:26:32.215Z,17.35
2018-11-02T06:29:02.254Z,17.69
2018-11-02T06:31:32.310Z,17.71
2018-11-02T06:34:03.767Z,17.78
2018-11-02T06:36:34.263Z,18.21
2018-11-02T06:39:07.532Z,18.53
2018-11-02T06:41:38.629Z,18.84
2018-11-02T06:44:09.894Z,19.57
2018-11-02T06:46:40.466Z,20.26
2018-11-02T06:49:11.109Z,20.03
2018-11-02T06:51:42.853Z,20.28
2018-11-02T06:54:14.966Z,20.14
2018-11-02T06:56:45.726Z,21.25
2018-11-02T06:59:17.260Z,20.79
2018-11-02T07:01:48.215Z,21.13
2018-11-02T07:04:18.282Z,21.32
2018-11-02T07:06:49.246Z,21.63
2018-11-02T07:09:20.435Z,21.93
2018-11-02T07:11:52.403Z,21.91
2018-11-02T07:14:24.044Z,21.57
2018-11-02T07:16:55.003Z,21.80
2018-11-02T07:19:26.189Z,21.77
2018-11-02T07:21:57.075Z,21.85
2018-11-02T07:24:27.766Z,22.57
2018-11-02T07:26:57.790Z,23.16
2018-11-02T07:29:27.758Z,23.51
2018-11-02T07:31:57.809Z,23.38
2018-11-02T07:34:28.946Z,23.48
2018-11-02T07:36:59.170Z,23.74
2018-11-02T07:39:31.294Z,23.83
2018-11-02T07:42:01.915Z,24.11
2018-11-02T07:44:32.983Z,24.35
2018-11-02T07:47:03.095Z,24.25
2018-11-02T07:49:33.254Z,24.42
2018-11-02T07:52:03.395Z,25.01
2018-11-02T07:54:34.302Z,25.17
2018-11-02T07:57:04.292Z,25.58
2018-11-02T07:59:34.270Z,25.72
2018-11-02T08:02:04.401Z,25.96
2018-11-02T08:04:34.432Z,25.68
2018-11-02T08:07:04.515Z,25.98
2018-11-02T08:09:34.565Z,25.90
2018-11-02T08:12:04.737Z,26.35
2018-11-02T08:14:34.798Z,26.21
2018-11-02T08:17:04.781Z,26.52
2018-11-02T08:19:34.825Z,27.67
2018-11-02T08:22:04.942Z,27.63
2018-11-02T08:24:35.398Z,26.58
2018-11-02T08:27:05.296Z,26.83
2018-11-02T08:29:35.418Z,27.14
2018-11-02T08:32:05.524Z,26.66
2018-11-02T08:34:35.845Z,27.31
2018-11-02T08:37:06.219Z,27.06
2018-11-02T08:39:36.307Z,26.82
2018-11-02T08:42:06.830Z,27.82
2018-11-02T08:44:37.228Z,28.53
2018-11-02T08:47:07.533Z,28.73
2018-11-02T08:49:37.593Z,29.38
2018-11-02T08:52:08.125Z,29.99
2018-11-02T08:54:39.002Z,29.79
2018-11-02T08:57:09.003Z,29.54
2018-11-02T08:59:39.191Z,29.94
2018-11-02T09:02:09.430Z,30.26
2018-11-02T09:04:40.137Z,30.23
2018-11-02T09:07:10.231Z,30.03
2018-11-02T09:09:40.204Z,29.82
2018-11-02T09:12:10.324Z,29.85
2018-11-02T09:14:41.469Z,30.64
2018-11-02T09:17:11.470Z,30.50
2018-11-02T09:19:41.670Z,30.93
2018-11-02T09:22:11.646Z,31.28
2018-11-02T09:24:41.732Z,31.49
2018-11-02T09:27:11.774Z,32.94
2018-11-02T09:29:41.726Z,31.92
2018-11-02T09:32:11.757Z,32.25
2018-11-02T09:34:41.832Z,31.82
2018-11-02T09:37:12.254Z,31.74
2018-11-02T09:39:42.246Z,31.57
2018-11-02T09:42:12.359Z,32.54
2018-11-02T09:44:42.664Z,32.92
2018-11-02T09:47:12.807Z,32.52
2018-11-02T09:49:42.916Z,32.09
2018-11-02T09:52:12.933Z,32.67
2018-11-02T09:54:43.375Z,33.30
2018-11-02T09:57:13.459Z,33.02
2018-11-02T09:59:43.484Z,31.96
2018-11-02T10:02:13.554Z,32.15
2018-11-02T10:04:43.672Z,32.78
2018-11-02T10:07:13.811Z,33.42
2018-11-02T10:09:43.961Z,33.40
2018-11-02T10:12:14.028Z,34.04
2018-11-02T10:14:44.882Z,33.96
2018-11-02T10:17:14.976Z,33.46
2018-11-02T10:19:45.082Z,33.54
2018-11-02T10:22:15.315Z,33.29
2018-11-02T10:24:45.750Z,32.54
2018-11-02T10:27:16.018Z,31.76
2018-11-02T10:29:46.170Z,32.16
2018-11-02T10:32:16.379Z,32.82
2018-11-02T10:34:46.762Z,32.12
2018-11-02T10:37:17.266Z,33.20
2018-11-02T10:39:47.714Z,33.38
2018-11-02T10:42:17.926Z,34.16
2018-11-02T10:44:49.182Z,34.71
2018-11-02T10:47:19.498Z,34.69
2018-11-02T10:49:49.433Z,35.50
2018-11-02T10:52:19.469Z,35.05
2018-11-02T10:54:49.824Z,33.76
2018-11-02T10:57:19.669Z,34.70
2018-11-02T10:59:49.776Z,34.23
2018-11-02T11:02:28.682Z,34.86
2018-11-02T11:04:59.845Z,34.48
2018-11-02T11:07:29.836Z,34.36
2018-11-02T11:09:59.841Z,34.94
2018-11-02T11:12:30.046Z,35.75
2018-11-02T11:15:01.083Z,35.53
2018-11-02T11:17:31.226Z,36.01
2018-11-02T11:20:01.179Z,35.64
2018-11-02T11:22:31.034Z,35.28
2018-11-02T11:25:02.156Z,35.32
2018-11-02T11:27:32.097Z,35.04
2018-11-02T11:30:02.241Z,35.01
2018-11-02T11:32:32.411Z,35.38
2018-11-02T11:35:03.144Z,35.85
2018-11-02T11:37:33.304Z,36.19
2018-11-02T11:40:04.327Z,36.66
2018-11-02T11:42:35.307Z,37.29
2018-11-02T11:45:06.920Z,37.31
2018-11-02T11:47:37.309Z,36.43
2018-11-02T11:50:17.612Z,36.50
2018-11-02T11:52:48.795Z,36.12
2018-11-02T11:55:19.807Z,36.48
2018-11-02T11:57:49.718Z,37.09
2018-11-02T12:00:21.630Z,37.26
2018-11-02T12:02:52.239Z,37.23
2018-11-02T12:05:23.945Z,37.34
2018-11-02T12:07:54.082Z,36.47
2018-11-02T12:10:25.384Z,36.22
2018-11-02T12:12:55.492Z,36.51
2018-11-02T12:15:26.127Z,36.39
2018-11-02T12:17:56.191Z,36.38
2018-11-02T12:20:29.721Z,36.10
2018-11-02T12:23:02.290Z,35.65
2018-11-02T12:25:32.678Z,35.83
2018-11-02T12:28:02.635Z,35.92
2018-11-02T12:30:32.683Z,35.59
2018-11-02T12:33:02.663Z,35.50
2018-11-02T12:35:33.523Z,35.63
2018-11-02T12:38:04.309Z,34.46
2018-11-02T12:40:34.984Z,34.96
